Terminal Aerodrome Forecast
Issued by NWS

Home | Current Version | Previous Version | Text Only | Print | Product List | Glossary On
Versions: 1 2 3 4 5 6 7 8 9 10 11 12 13 14 15 16 17
000
FTPA31 PHFO 301725
TAFHLI
TAF
PHLI 301725Z 3018/3118 07008KT P6SM SCT020 BKN035
      TEMPO 3018/3020 BKN025
     FM310200 07011KT P6SM VCSH SCT020 BKN035
     FM310400 07010KT P6SM SCT020 BKN035=

USA.gov is the U.S. government's official web portal to all federal, state and local government web resources and services.